Time;durP1;ratioP1;P1;durP2;ratioP2;P2;SDS_P1;SDS_P2;PMS_P1;PMS_P2;Temp;Humidity;BMP_temperature;BMP_pressure;BME280_temperature;BME280_humidity;BME280_pressure;Samples;Min_cycle;Max_cycle;Signal;HPM_P1;HPM_P2
2021/09/02 00:02:08;;;;;;;3.83;2.80;;;;;;;12.84;100.00;102050.81;5014427;28;20801;-82
2021/09/02 00:04:36;;;;;;;3.47;2.77;;;;;;;12.90;100.00;102054.31;5021119;28;20446;-82
2021/09/02 00:07:03;;;;;;;3.40;2.53;;;;;;;12.90;100.00;102053.50;5037591;28;20443;-82
2021/09/02 00:09:30;;;;;;;6.50;3.07;;;;;;;12.84;100.00;102053.53;5037741;28;20486;-82
2021/09/02 00:11:57;;;;;;;2.57;2.37;;;;;;;12.78;100.00;102049.22;5037499;28;20436;-82
2021/09/02 00:14:24;;;;;;;3.90;2.93;;;;;;;12.81;100.00;102047.84;5036840;28;20477;-82
2021/09/02 00:16:51;;;;;;;6.53;3.57;;;;;;;12.75;100.00;102048.94;5037380;28;20455;-83
2021/09/02 00:19:17;;;;;;;5.53;4.03;;;;;;;12.85;100.00;102059.78;5037965;28;20443;-82
2021/09/02 00:21:45;;;;;;;4.37;3.33;;;;;;;12.79;100.00;102058.16;5038170;28;20446;-82
2021/09/02 00:24:12;;;;;;;2.90;2.20;;;;;;;12.83;100.00;102057.34;5037147;28;20458;-82
2021/09/02 00:26:40;;;;;;;3.77;2.73;;;;;;;12.81;100.00;102075.84;5018147;28;20447;-82
2021/09/02 00:29:07;;;;;;;2.60;2.27;;;;;;;12.85;100.00;102062.50;5017682;28;20515;-82
2021/09/02 00:31:33;;;;;;;4.97;3.63;;;;;;;12.94;100.00;102069.00;5018135;28;20436;-83
2021/09/02 00:34:00;;;;;;;5.03;2.90;;;;;;;13.02;100.00;102062.16;5018450;28;20459;-82
2021/09/02 00:36:26;;;;;;;4.00;2.80;;;;;;;13.05;100.00;102064.28;5018057;28;21045;-82
2021/09/02 00:38:54;;;;;;;4.40;2.90;;;;;;;13.00;100.00;102065.13;5016892;28;20463;-82
2021/09/02 00:41:20;;;;;;;3.80;2.63;;;;;;;12.81;100.00;102073.13;5017494;28;20444;-82
2021/09/02 00:43:48;;;;;;;3.53;2.73;;;;;;;12.85;100.00;102078.81;5017851;28;20443;-82
2021/09/02 00:46:15;;;;;;;3.90;3.13;;;;;;;12.72;100.00;102082.97;5034189;28;20455;-82
2021/09/02 00:48:43;;;;;;;3.17;2.00;;;;;;;12.68;100.00;102095.47;5037433;28;20498;-82
2021/09/02 00:51:09;;;;;;;2.70;2.20;;;;;;;12.69;100.00;102083.50;5037499;28;20451;-82
2021/09/02 00:53:36;;;;;;;4.73;3.00;;;;;;;12.72;100.00;102088.41;5037291;28;20435;-82
2021/09/02 00:56:05;;;;;;;3.27;1.90;;;;;;;12.77;100.00;102084.84;5022582;28;20456;-82
2021/09/02 00:58:31;;;;;;;3.83;2.60;;;;;;;12.82;100.00;102093.78;5017372;28;20475;-82
2021/09/02 01:00:58;;;;;;;4.57;3.07;;;;;;;12.78;100.00;102094.63;5017625;28;20433;-82
2021/09/02 01:03:24;;;;;;;3.97;2.30;;;;;;;12.83;100.00;102086.44;5018386;28;20582;-83
2021/09/02 01:05:52;;;;;;;5.00;3.80;;;;;;;12.78;100.00;102084.56;5037187;28;20451;-82
2021/09/02 01:08:19;;;;;;;4.30;2.23;;;;;;;12.76;100.00;102084.03;5036295;28;20860;-82
2021/09/02 01:10:49;;;;;;;4.10;2.60;;;;;;;12.80;100.00;102085.09;5037385;28;20447;-82
2021/09/02 01:13:17;;;;;;;11.80;3.90;;;;;;;12.84;100.00;102083.47;5037461;28;20558;-82
2021/09/02 01:15:43;;;;;;;4.03;2.47;;;;;;;12.81;100.00;102088.63;5037325;28;20933;-82
2021/09/02 01:18:11;;;;;;;3.43;3.13;;;;;;;12.78;100.00;102076.41;5037517;28;20824;-82
2021/09/02 01:20:37;;;;;;;3.03;2.23;;;;;;;12.77;100.00;102077.50;5017434;28;20436;-82
2021/09/02 01:23:06;;;;;;;5.10;3.60;;;;;;;12.71;100.00;102080.53;5017458;28;20448;-83
2021/09/02 01:25:36;;;;;;;4.40;3.17;;;;;;;12.71;100.00;102077.81;5017526;28;20888;-83
2021/09/02 01:28:05;;;;;;;4.13;3.13;;;;;;;12.61;100.00;102070.50;5017741;28;20838;-82
2021/09/02 01:30:33;;;;;;;6.20;3.80;;;;;;;12.54;100.00;102075.44;5018533;28;20444;-83
2021/09/02 01:33:00;;;;;;;4.93;3.30;;;;;;;12.57;100.00;102081.13;5037288;28;20482;-82
2021/09/02 01:35:31;;;;;;;4.17;2.50;;;;;;;12.52;100.00;102072.16;5037091;28;20438;-83
2021/09/02 01:38:00;;;;;;;4.00;2.93;;;;;;;12.56;100.00;102075.94;5037553;28;20463;-83
2021/09/02 01:40:30;;;;;;;6.03;3.30;;;;;;;12.57;100.00;102075.69;5037467;28;20439;-83
2021/09/02 01:42:58;;;;;;;6.13;3.60;;;;;;;12.66;100.00;102077.81;5032976;28;20448;-83
2021/09/02 01:45:25;;;;;;;3.50;2.70;;;;;;;12.61;100.00;102082.16;5017565;28;20436;-82
2021/09/02 01:47:51;;;;;;;1.73;1.63;;;;;;;12.59;100.00;102076.22;5017877;28;20456;-83
2021/09/02 01:50:21;;;;;;;4.37;3.10;;;;;;;12.59;100.00;102081.66;5018178;28;20484;-83
2021/09/02 01:52:50;;;;;;;3.33;2.47;;;;;;;12.68;100.00;102086.50;5018498;28;20491;-82
2021/09/02 01:55:17;;;;;;;6.30;4.27;;;;;;;12.75;100.00;102089.72;5020093;28;20809;-82
2021/09/02 01:57:44;;;;;;;4.87;3.53;;;;;;;12.75;100.00;102081.56;5017799;28;20468;-83
2021/09/02 02:00:14;;;;;;;5.60;3.20;;;;;;;12.75;100.00;102082.41;5017798;28;20440;-81
2021/09/02 02:02:41;;;;;;;4.50;2.83;;;;;;;12.69;100.00;102079.97;5016895;28;20444;-81
2021/09/02 02:05:09;;;;;;;3.90;3.03;;;;;;;12.68;100.00;102084.59;5016900;28;20456;-81
2021/09/02 02:07:36;;;;;;;5.00;2.90;;;;;;;12.63;100.00;102079.19;5026078;28;20468;-81
2021/09/02 02:10:03;;;;;;;4.03;2.77;;;;;;;12.60;100.00;102082.47;5036637;28;20487;-81
2021/09/02 02:12:29;;;;;;;3.17;2.60;;;;;;;12.59;100.00;102080.84;5036618;28;20443;-81
2021/09/02 02:14:56;;;;;;;4.30;2.87;;;;;;;12.57;100.00;102080.28;5036467;28;20431;-81
2021/09/02 02:17:24;;;;;;;5.93;3.27;;;;;;;12.66;100.00;102077.81;5036973;28;20458;-82
2021/09/02 02:19:50;;;;;;;5.03;3.57;;;;;;;12.71;100.00;102072.38;5022233;28;20441;-82
2021/09/02 02:22:17;;;;;;;4.40;3.10;;;;;;;12.74;100.00;102069.88;5017582;28;20440;-81
2021/09/02 02:24:49;;;;;;;5.20;3.00;;;;;;;12.70;100.00;102068.00;5017359;28;20432;-82
2021/09/02 02:27:15;;;;;;;4.30;2.70;;;;;;;12.75;100.00;102070.69;5016889;28;20969;-81
2021/09/02 02:29:41;;;;;;;7.10;3.20;;;;;;;12.76;100.00;102070.44;5030762;28;20498;-82
2021/09/02 02:32:09;;;;;;;3.13;2.83;;;;;;;12.77;100.00;102080.22;5037526;28;20446;-81
2021/09/02 02:34:37;;;;;;;6.40;3.60;;;;;;;12.77;100.00;102074.78;5027471;28;20439;-82
2021/09/02 02:37:03;;;;;;;6.60;3.00;;;;;;;12.77;100.00;102074.78;5037662;28;20446;-82
2021/09/02 02:39:30;;;;;;;4.47;2.73;;;;;;;12.77;100.00;102066.63;5018972;28;20956;-81
2021/09/02 02:41:56;;;;;;;3.80;2.20;;;;;;;12.72;100.00;102072.09;5015088;28;20440;-81
2021/09/02 02:44:23;;;;;;;4.20;2.80;;;;;;;12.66;100.00;102067.78;5014949;28;20448;-81
2021/09/02 02:46:50;;;;;;;5.00;3.10;;;;;;;12.66;100.00;102075.09;5014722;28;20976;-81
2021/09/02 02:49:16;;;;;;;4.70;2.60;;;;;;;12.55;100.00;102074.31;5032448;28;20483;-81
2021/09/02 02:51:44;;;;;;;2.40;1.73;;;;;;;12.57;100.00;102066.69;5034480;28;20435;-81
2021/09/02 02:54:10;;;;;;;3.50;2.17;;;;;;;12.51;100.00;102063.19;5034754;28;20801;-81
2021/09/02 02:56:37;;;;;;;6.33;3.63;;;;;;;12.60;100.00;102066.16;5034866;28;20447;-82
2021/09/02 02:59:03;;;;;;;12.17;2.97;;;;;;;12.55;100.00;102066.97;5034031;28;20482;-81
2021/09/02 03:01:30;;;;;;;3.47;2.93;;;;;;;12.53;100.00;102069.19;5034586;28;20920;-81
2021/09/02 03:03:56;;;;;;;3.70;2.93;;;;;;;12.44;100.00;102061.84;5034838;28;20451;-81
2021/09/02 03:06:23;;;;;;;3.47;2.47;;;;;;;12.28;100.00;102069.25;5034690;28;20443;-81
2021/09/02 03:08:51;;;;;;;8.43;3.20;;;;;;;12.20;100.00;102075.25;5034194;28;20463;-81
2021/09/02 03:11:17;;;;;;;7.77;3.90;;;;;;;12.15;100.00;102077.97;5030236;28;20945;-81
2021/09/02 03:13:44;;;;;;;4.00;2.83;;;;;;;12.15;100.00;102072.53;5014739;28;20447;-81
2021/09/02 03:16:10;;;;;;;5.00;2.90;;;;;;;12.11;100.00;102072.28;5014801;28;20933;-81
2021/09/02 03:18:37;;;;;;;4.17;2.67;;;;;;;12.11;100.00;102066.84;5014574;28;20478;-81
2021/09/02 03:21:03;;;;;;;4.30;2.53;;;;;;;12.15;100.00;102059.78;5014680;28;20435;-81
2021/09/02 03:23:30;;;;;;;7.57;3.50;;;;;;;12.19;100.00;102063.56;5018258;28;20442;-81
2021/09/02 03:25:58;;;;;;;8.13;5.20;;;;;;;12.24;100.00;102068.97;5033876;28;20441;-81
2021/09/02 03:28:24;;;;;;;11.73;3.83;;;;;;;12.29;100.00;102070.88;5034434;28;20463;-82
2021/09/02 03:30:51;;;;;;;7.80;4.97;;;;;;;12.36;100.00;102074.13;5022347;28;20491;-81
2021/09/02 03:33:17;;;;;;;5.07;4.43;;;;;;;12.41;100.00;102070.56;5014435;28;20437;-81
2021/09/02 03:35:44;;;;;;;10.70;5.00;;;;;;;12.42;100.00;102067.56;5024967;28;20458;-81
2021/09/02 03:38:10;;;;;;;8.20;4.83;;;;;;;12.52;100.00;102074.88;5036842;28;20459;-81
2021/09/02 03:40:37;;;;;;;15.27;5.97;;;;;;;12.55;100.00;102083.28;5037761;28;20920;-81
2021/09/02 03:43:05;;;;;;;8.47;4.17;;;;;;;12.49;100.00;102076.25;5038029;28;20443;-81
2021/09/02 03:45:31;;;;;;;7.80;4.50;;;;;;;12.52;100.00;102075.69;5029010;28;20436;-81
2021/09/02 03:47:58;;;;;;;5.90;4.10;;;;;;;12.67;100.00;102080.28;5017887;28;20493;-81
2021/09/02 03:50:25;;;;;;;10.30;4.93;;;;;;;12.69;100.00;102083.50;5018243;28;20507;-81
2021/09/02 03:52:51;;;;;;;5.17;3.60;;;;;;;12.72;100.00;102087.59;5018489;28;20475;-81
2021/09/02 03:55:18;;;;;;;7.13;6.00;;;;;;;12.76;100.00;102081.31;5017934;28;20454;-81
2021/09/02 03:57:44;;;;;;;4.63;2.90;;;;;;;12.81;100.00;102080.47;5033875;28;20475;-81
2021/09/02 04:00:14;;;;;;;6.93;4.40;;;;;;;12.76;100.00;102088.66;5037646;28;20945;-81
2021/09/02 04:02:41;;;;;;;6.97;4.50;;;;;;;12.50;100.00;102086.03;5037768;28;20443;-81
2021/09/02 04:05:09;;;;;;;7.43;4.17;;;;;;;12.36;100.00;102090.44;5037451;28;20446;-81
2021/09/02 04:07:36;;;;;;;7.23;5.23;;;;;;;12.31;100.00;102093.97;5022599;28;20484;-81
2021/09/02 04:10:04;;;;;;;6.57;4.07;;;;;;;12.36;100.00;102090.44;5018056;28;20495;-82
2021/09/02 04:12:30;;;;;;;7.87;5.13;;;;;;;12.36;100.00;102091.25;5017617;28;20432;-82
2021/09/02 04:14:57;;;;;;;15.10;5.10;;;;;;;12.37;100.00;102098.28;5017584;28;20467;-83
2021/09/02 04:17:25;;;;;;;7.77;5.53;;;;;;;12.37;100.00;102092.03;5018140;28;20497;-82
2021/09/02 04:19:51;;;;;;;4.87;4.10;;;;;;;12.32;100.00;102105.66;5037080;28;20951;-82
2021/09/02 04:22:18;;;;;;;4.70;3.57;;;;;;;12.41;100.00;102097.75;5037592;28;20436;-83
2021/09/02 04:24:44;;;;;;;3.20;2.73;;;;;;;12.46;100.00;102086.88;5036947;28;21034;-83
2021/09/02 04:27:14;;;;;;;9.60;3.33;;;;;;;12.46;100.00;102095.00;5037353;28;20471;-83
2021/09/02 04:29:40;;;;;;;5.20;3.20;;;;;;;12.43;100.00;102099.09;5019881;28;20927;-83
2021/09/02 04:32:08;;;;;;;4.63;2.87;;;;;;;12.38;100.00;102088.22;5017862;28;20432;-83
2021/09/02 04:34:36;;;;;;;7.00;3.77;;;;;;;12.34;100.00;102098.84;5017960;28;20436;-83
2021/09/02 04:37:02;;;;;;;4.20;3.27;;;;;;;12.31;100.00;102106.75;5017852;28;20439;-83
2021/09/02 04:39:29;;;;;;;6.20;3.93;;;;;;;12.32;100.00;102106.47;5017499;28;20440;-83
2021/09/02 04:41:55;;;;;;;4.90;3.07;;;;;;;12.40;100.00;102112.44;5034031;28;20462;-83
2021/09/02 04:44:21;;;;;;;5.27;3.70;;;;;;;12.41;100.00;102103.19;5037283;28;20446;-83
2021/09/02 04:46:48;;;;;;;6.23;4.53;;;;;;;12.37;100.00;102103.72;5037668;28;20456;-84
2021/09/02 04:49:14;;;;;;;4.77;2.70;;;;;;;12.26;100.00;102106.72;5030195;28;20475;-82
2021/09/02 04:51:42;;;;;;;3.47;2.90;;;;;;;12.26;100.00;102107.56;5036916;28;20452;-83
2021/09/02 04:54:09;;;;;;;3.80;3.17;;;;;;;12.28;100.00;102110.81;5036073;28;20443;-83
2021/09/02 04:56:36;;;;;;;7.27;4.13;;;;;;;12.26;100.00;102118.44;5036899;28;20427;-83
2021/09/02 04:59:02;;;;;;;6.00;2.83;;;;;;;12.20;100.00;102116.81;5043580;22;20510;-77
2021/09/02 05:01:29;;;;;;;3.10;2.80;;;;;;;12.15;100.00;102116.81;5035478;28;20451;-77
2021/09/02 05:03:55;;;;;;;6.50;3.57;;;;;;;12.25;100.00;102124.13;5035304;28;20824;-79
2021/09/02 05:06:22;;;;;;;4.13;3.20;;;;;;;12.35;100.00;102130.38;5040583;28;20439;-78
2021/09/02 05:08:49;;;;;;;6.63;3.70;;;;;;;12.37;100.00;102122.75;5039061;28;20447;-78
2021/09/02 05:11:16;;;;;;;7.40;3.03;;;;;;;12.37;100.00;102120.03;5037533;28;20483;-78
2021/09/02 05:13:42;;;;;;;5.87;3.43;;;;;;;12.38;100.00;102118.94;5036492;28;20435;-77
2021/09/02 05:16:09;;;;;;;10.03;4.20;;;;;;;12.24;100.00;102120.59;5034864;28;20933;-77
2021/09/02 05:18:35;;;;;;;3.93;3.40;;;;;;;12.31;100.00;102126.56;5035530;28;20446;-78
2021/09/02 05:21:02;;;;;;;4.43;3.80;;;;;;;12.34;100.00;102126.00;5035232;28;20459;-77
2021/09/02 05:23:28;;;;;;;7.60;3.50;;;;;;;12.42;100.00;102124.63;5035499;28;20443;-77
2021/09/02 05:25:56;;;;;;;5.00;3.40;;;;;;;12.43;100.00;102125.44;5034753;28;20455;-77
2021/09/02 05:28:22;;;;;;;5.17;3.90;;;;;;;12.43;100.00;102139.03;5034700;28;20561;-77
2021/09/02 05:30:49;;;;;;;10.40;4.20;;;;;;;12.46;100.00;102133.06;5034499;28;20581;-77
2021/09/02 05:33:15;;;;;;;6.63;4.37;;;;;;;12.52;100.00;102131.94;5034637;28;20442;-77
2021/09/02 05:35:42;;;;;;;7.20;4.60;;;;;;;12.55;100.00;102139.56;5034648;28;20444;-77
2021/09/02 05:38:10;;;;;;;10.63;4.90;;;;;;;12.60;100.00;102134.09;5034964;28;20466;-77
2021/09/02 05:40:36;;;;;;;11.90;4.00;;;;;;;12.68;100.00;102132.72;5034511;28;20451;-77
2021/09/02 05:43:04;;;;;;;6.10;4.17;;;;;;;12.75;100.00;102128.63;5034601;28;20454;-77
2021/09/02 05:45:31;;;;;;;7.00;4.27;;;;;;;12.85;100.00;102128.59;5034442;28;20455;-77
2021/09/02 05:47:57;;;;;;;6.77;4.00;;;;;;;12.95;100.00;102135.88;5034371;28;20450;-77
2021/09/02 05:50:24;;;;;;;6.37;4.67;;;;;;;13.03;100.00;102140.75;5034095;28;20494;-77
2021/09/02 05:52:50;;;;;;;6.97;4.83;;;;;;;13.17;100.00;102132.78;5034030;28;20446;-77
2021/09/02 05:55:17;;;;;;;4.43;3.23;;;;;;;13.31;100.00;102128.38;5035044;28;20447;-78
2021/09/02 05:57:43;;;;;;;5.13;3.90;;;;;;;13.34;100.00;102132.47;5035643;28;20454;-78
2021/09/02 06:00:12;;;;;;;4.43;3.37;;;;;;;13.44;100.00;102128.84;5034677;28;20459;-78
2021/09/02 06:02:39;;;;;;;5.30;3.30;;;;;;;13.55;100.00;102138.59;5034034;28;20432;-76
2021/09/02 06:05:06;;;;;;;3.77;2.80;;;;;;;13.67;100.00;102132.78;5033625;28;20443;-76
2021/09/02 06:07:33;;;;;;;6.00;4.43;;;;;;;13.79;100.00;102144.13;5034196;28;20450;-76
2021/09/02 06:09:59;;;;;;;4.70;3.40;;;;;;;13.84;100.00;102135.91;5033721;28;20490;-77
2021/09/02 06:12:26;;;;;;;10.77;5.23;;;;;;;13.96;100.00;102149.19;5033760;28;20444;-77
2021/09/02 06:14:52;;;;;;;4.70;3.70;;;;;;;14.07;100.00;102148.78;5033827;28;20452;-77
2021/09/02 06:17:20;;;;;;;7.40;4.37;;;;;;;14.08;100.00;102153.16;5033789;28;20458;-77
2021/09/02 06:19:46;;;;;;;4.70;3.17;;;;;;;14.17;100.00;102158.81;5033649;28;20479;-77
2021/09/02 06:22:13;;;;;;;4.53;3.03;;;;;;;14.21;100.00;102151.69;5033662;28;20817;-77
2021/09/02 06:24:39;;;;;;;6.57;4.13;;;;;;;14.29;100.00;102161.94;5033719;28;20443;-76
2021/09/02 06:27:06;;;;;;;7.97;4.20;;;;;;;14.37;100.00;102157.78;5033919;28;20443;-76
2021/09/02 06:29:32;;;;;;;8.67;3.77;;;;;;;14.39;100.00;102167.31;5033585;28;20468;-75
2021/09/02 06:31:58;;;;;;;8.50;3.97;;;;;;;14.47;100.00;102165.84;5033386;28;20494;-76
2021/09/02 06:34:26;;;;;;;7.27;4.60;;;;;;;14.53;100.00;102172.13;5033499;28;20446;-76
2021/09/02 06:36:53;;;;;;;10.93;4.50;;;;;;;14.60;100.00;102169.84;5033729;28;20447;-75
2021/09/02 06:39:19;;;;;;;5.30;4.10;;;;;;;14.68;100.00;102171.13;5033326;28;20475;-76
2021/09/02 06:41:45;;;;;;;5.87;4.30;;;;;;;14.70;100.00;102175.22;5033453;28;20443;-76
2021/09/02 06:44:13;;;;;;;5.43;3.50;;;;;;;14.74;100.00;102176.25;5033730;28;20994;-76
2021/09/02 06:46:40;;;;;;;3.87;3.13;;;;;;;14.67;100.00;102177.69;5033372;28;20447;-75
2021/09/02 06:49:06;;;;;;;4.10;3.70;;;;;;;14.71;100.00;102173.28;5033096;28;20475;-75
2021/09/02 06:51:36;;;;;;;4.20;3.13;;;;;;;14.77;100.00;102181.13;5033170;28;20490;-76
2021/09/02 06:54:02;;;;;;;5.60;3.90;;;;;;;14.70;100.00;102186.13;5033331;28;20495;-74
2021/09/02 06:56:29;;;;;;;5.30;4.10;;;;;;;14.71;100.00;102189.66;5032892;28;20438;-75
2021/09/02 06:58:55;;;;;;;6.80;4.07;;;;;;;14.78;100.00;102198.28;5032751;28;20466;-76
2021/09/02 07:01:21;;;;;;;6.63;4.57;;;;;;;14.88;100.00;102204.47;5033436;28;20470;-75
2021/09/02 07:03:48;;;;;;;5.57;3.20;;;;;;;14.91;100.00;102194.06;5033146;28;20824;-77
2021/09/02 07:06:14;;;;;;;7.10;4.50;;;;;;;15.01;100.00;102200.22;5033613;28;20443;-77
2021/09/02 07:08:42;;;;;;;7.47;4.93;;;;;;;15.13;100.00;102213.44;5032956;28;20876;-76
2021/09/02 07:11:09;;;;;;;7.50;4.23;;;;;;;15.01;100.00;102208.41;5033382;28;20494;-69
2021/09/02 07:13:35;;;;;;;8.47;4.27;;;;;;;15.08;100.00;102208.84;5036829;28;20450;-78
2021/09/02 07:16:02;;;;;;;3.60;2.97;;;;;;;15.00;100.00;102208.69;5038451;28;20446;-78
2021/09/02 07:18:28;;;;;;;4.43;3.70;;;;;;;15.05;100.00;102219.53;5038645;28;20455;-78
2021/09/02 07:20:55;;;;;;;4.83;2.97;;;;;;;14.99;100.00;102229.72;5038877;28;20463;-78
2021/09/02 07:23:21;;;;;;;4.80;4.10;;;;;;;15.01;100.00;102234.91;5039084;28;20455;-77
2021/09/02 07:25:49;;;;;;;5.00;3.40;;;;;;;15.06;100.00;102229.38;5038146;28;20443;-78
2021/09/02 07:28:16;;;;;;;8.17;4.07;;;;;;;15.07;100.00;102234.53;5037226;28;20449;-72
2021/09/02 07:30:43;;;;;;;5.33;2.90;;;;;;;15.17;100.00;102239.06;5036587;28;20582;-73
2021/09/02 07:33:10;;;;;;;4.57;2.90;;;;;;;15.19;100.00;102242.31;5036840;28;20450;-72
2021/09/02 07:35:36;;;;;;;4.37;3.27;;;;;;;15.11;100.00;102242.97;5036696;28;20458;-74
2021/09/02 07:38:03;;;;;;;5.77;3.40;;;;;;;15.09;100.00;102243.22;5036929;28;20443;-74
2021/09/02 07:40:30;;;;;;;5.27;3.30;;;;;;;15.17;100.00;102244.50;5038420;28;20458;-78
2021/09/02 07:42:57;;;;;;;4.20;2.57;;;;;;;15.24;100.00;102247.72;5040260;28;20466;-78
2021/09/02 07:45:24;;;;;;;5.87;3.83;;;;;;;15.31;100.00;102250.88;5040348;28;20450;-79
2021/09/02 07:47:51;;;;;;;8.67;4.57;;;;;;;15.33;100.00;102247.88;5040487;28;20467;-78
2021/09/02 07:50:17;;;;;;;13.43;5.37;;;;;;;15.34;100.00;102244.84;5040119;28;20477;-79
2021/09/02 07:52:44;;;;;;;4.30;3.43;;;;;;;15.41;100.00;102235.50;5040264;28;20948;-79
2021/09/02 07:55:11;;;;;;;5.30;3.60;;;;;;;15.61;100.00;102254.34;5040183;28;20439;-77
2021/09/02 07:57:42;;;;;;;7.20;4.60;;;;;;;15.56;100.00;102236.09;5039596;28;20512;-78
2021/09/02 08:00:11;;;;;;;5.00;3.60;;;;;;;15.62;100.00;102245.84;5036831;28;20474;-75
2021/09/02 08:02:38;;;;;;;5.93;3.60;;;;;;;15.58;100.00;102249.44;5036281;28;20450;-75
2021/09/02 08:05:05;;;;;;;8.47;4.10;;;;;;;15.60;100.00;102247.25;5036189;28;20470;-73
2021/09/02 08:07:31;;;;;;;5.93;4.63;;;;;;;15.71;100.00;102247.94;5036090;28;20447;-74
2021/09/02 08:09:58;;;;;;;3.50;2.43;;;;;;;15.57;100.00;102253.31;5036041;28;20463;-73
2021/09/02 08:12:24;;;;;;;3.37;2.60;;;;;;;15.62;100.00;102250.50;5035895;28;20490;-74
2021/09/02 08:14:51;;;;;;;7.50;4.70;;;;;;;15.60;100.00;102252.72;5036003;28;20443;-74
2021/09/02 08:17:18;;;;;;;3.77;3.27;;;;;;;15.64;100.00;102251.06;5035695;28;20986;-73
2021/09/02 08:19:45;;;;;;;5.50;3.00;;;;;;;15.68;100.00;102259.50;5035744;28;20459;-72
2021/09/02 08:22:11;;;;;;;3.30;2.20;;;;;;;15.73;100.00;102267.59;5036009;28;20447;-72
2021/09/02 08:24:38;;;;;;;5.30;3.00;;;;;;;15.73;100.00;102265.69;5034802;28;20447;-74
2021/09/02 08:27:04;;;;;;;5.90;3.90;;;;;;;15.76;100.00;102273.31;5035725;28;20459;-74
2021/09/02 08:29:31;;;;;;;2.77;2.40;;;;;;;15.73;100.00;102268.41;5035694;28;20474;-74
2021/09/02 08:31:57;;;;;;;4.03;2.93;;;;;;;15.79;100.00;102269.16;5035356;28;20479;-73
2021/09/02 08:34:25;;;;;;;4.60;3.40;;;;;;;15.74;100.00;102267.31;5035880;28;20443;-74
2021/09/02 08:36:51;;;;;;;4.03;2.67;;;;;;;15.87;100.00;102274.75;5035605;28;20450;-74
2021/09/02 08:39:18;;;;;;;3.80;2.60;;;;;;;15.94;100.00;102273.56;5035473;28;20459;-73
2021/09/02 08:41:45;;;;;;;4.03;3.13;;;;;;;16.00;100.00;102283.34;5035503;28;20867;-74
2021/09/02 08:44:11;;;;;;;5.03;2.27;;;;;;;16.03;100.00;102282.75;5035479;28;20823;-74
2021/09/02 08:46:38;;;;;;;2.93;2.53;;;;;;;16.06;99.87;102279.41;5035316;28;20517;-74
2021/09/02 08:49:05;;;;;;;5.40;3.10;;;;;;;16.07;99.47;102278.28;5035306;28;20471;-73
2021/09/02 08:51:35;;;;;;;3.40;2.70;;;;;;;16.06;99.95;102282.16;5035217;28;20502;-73
2021/09/02 08:54:02;;;;;;;3.40;2.40;;;;;;;16.01;100.00;102282.22;5035258;28;20439;-73
2021/09/02 08:56:29;;;;;;;3.50;2.57;;;;;;;16.11;99.46;102277.44;5035181;28;20454;-74
2021/09/02 08:58:56;;;;;;;4.47;3.03;;;;;;;16.25;100.00;102277.50;5034690;28;20952;-74
2021/09/02 09:01:22;;;;;;;6.10;3.20;;;;;;;16.31;99.27;102278.22;5035108;28;20801;-73
2021/09/02 09:03:49;;;;;;;6.53;3.37;;;;;;;16.45;99.12;102270.88;5035043;28;20451;-74
2021/09/02 09:06:23;;;;;;;4.00;2.90;;;;;;;16.53;98.08;102275.66;5035055;28;20443;-74
2021/09/02 09:08:51;;;;;;;2.67;1.90;;;;;;;16.59;97.59;102284.56;5034980;28;20861;-74
2021/09/02 09:11:20;;;;;;;5.17;3.33;;;;;;;16.57;97.76;102286.81;5034893;28;20491;-74
2021/09/02 09:13:47;;;;;;;4.70;2.90;;;;;;;16.59;98.25;102292.78;5034605;28;20832;-73
2021/09/02 09:16:14;;;;;;;5.40;3.37;;;;;;;16.76;98.59;102290.34;5034824;28;20435;-74
2021/09/02 09:18:43;;;;;;;3.70;3.17;;;;;;;16.81;98.49;102289.44;5034789;28;20443;-74
2021/09/02 09:21:12;;;;;;;4.57;3.63;;;;;;;16.70;98.13;102286.03;5034176;28;20497;-73
2021/09/02 09:23:54;;;;;;;3.57;3.20;;;;;;;16.67;97.67;102300.31;5030147;28;20487;-74
2021/09/02 09:26:21;;;;;;;5.77;3.67;;;;;;;16.74;97.81;102289.84;5014919;28;20968;-73
2021/09/02 09:28:48;;;;;;;4.40;2.80;;;;;;;16.74;97.72;102289.03;5033553;28;20458;-74
2021/09/02 09:31:26;;;;;;;3.37;2.33;;;;;;;16.87;97.91;102297.25;5034768;28;20475;-73
2021/09/02 09:33:53;;;;;;;5.90;3.23;;;;;;;16.82;97.35;102288.31;5034516;28;20470;-73
2021/09/02 09:36:22;;;;;;;7.27;3.93;;;;;;;16.91;97.75;102294.75;5034274;28;20517;-74
2021/09/02 09:38:59;;;;;;;7.03;4.37;;;;;;;16.88;97.62;102301.63;5034453;28;20471;-73
2021/09/02 09:41:34;;;;;;;5.03;3.37;;;;;;;16.98;96.69;102299.81;5034533;28;20450;-73
2021/09/02 09:44:17;;;;;;;6.30;4.37;;;;;;;17.01;96.27;102296.47;5034359;28;20451;-74
2021/09/02 09:47:04;;;;;;;4.83;3.50;;;;;;;17.00;96.50;102300.28;5034232;28;20447;-74
2021/09/02 09:49:41;;;;;;;5.50;3.30;;;;;;;17.12;97.01;102300.63;5033753;28;20984;-74
2021/09/02 09:52:17;;;;;;;5.77;3.67;;;;;;;17.14;96.18;102298.41;5034465;28;20463;-73
2021/09/02 09:54:45;;;;;;;6.20;4.33;;;;;;;17.13;96.98;102294.03;5034237;28;20434;-74
2021/09/02 09:57:11;;;;;;;10.27;5.47;;;;;;;17.30;96.74;102304.38;5033950;28;20443;-74
2021/09/02 09:59:41;;;;;;;9.30;4.87;;;;;;;17.46;95.41;102296.69;5038130;28;20459;-74
2021/09/02 10:02:08;;;;;;;7.00;4.37;;;;;;;17.47;94.25;102295.56;5040708;28;20446;-74
2021/09/02 10:04:35;;;;;;;7.37;4.27;;;;;;;17.56;94.14;102297.25;5034053;28;20446;-75
2021/09/02 10:07:04;;;;;;;8.13;4.50;;;;;;;17.54;94.78;102299.50;5033942;28;20447;-74
2021/09/02 10:09:31;;;;;;;8.97;5.50;;;;;;;17.64;94.51;102291.06;5033862;28;20502;-74
2021/09/02 10:12:01;;;;;;;9.47;4.57;;;;;;;17.81;93.93;102290.47;5033785;28;20489;-75
2021/09/02 10:14:27;;;;;;;7.27;4.00;;;;;;;17.85;93.22;102296.97;5033756;28;20447;-74
2021/09/02 10:16:56;;;;;;;9.23;4.47;;;;;;;17.92;92.53;102299.25;5033514;28;20944;-74
2021/09/02 10:19:23;;;;;;;8.87;6.07;;;;;;;18.05;92.34;102294.84;5033685;28;20886;-73
2021/09/02 10:21:51;;;;;;;6.70;3.73;;;;;;;18.23;91.88;102288.38;5033342;28;20794;-74
2021/09/02 10:24:38;;;;;;;9.70;4.77;;;;;;;18.34;91.92;102288.97;5033629;28;20825;-73
2021/09/02 10:27:37;;;;;;;7.97;4.17;;;;;;;18.36;89.54;102293.00;5033736;28;20775;-74
2021/09/02 10:30:24;;;;;;;6.10;4.10;;;;;;;18.50;90.14;102281.97;5033423;28;20459;-75
2021/09/02 10:32:50;;;;;;;8.87;3.90;;;;;;;18.48;89.72;102288.91;5032858;28;20526;-74
2021/09/02 10:35:34;;;;;;;9.30;4.50;;;;;;;18.43;89.39;102278.06;5033349;28;20447;-74
2021/09/02 10:38:01;;;;;;;10.80;5.10;;;;;;;18.42;88.25;102285.47;5033387;28;20450;-75
2021/09/02 10:40:47;;;;;;;6.40;3.63;;;;;;;18.49;88.92;102279.53;5033317;28;20475;-74
2021/09/02 10:43:36;;;;;;;7.80;4.57;;;;;;;18.51;88.08;102285.53;5033335;28;20427;-74
2021/09/02 10:46:02;;;;;;;6.13;3.50;;;;;;;18.51;88.00;102280.06;5032888;28;20451;-75
2021/09/02 10:48:29;;;;;;;9.03;4.60;;;;;;;18.69;88.09;102278.22;5032742;28;20451;-76
2021/09/02 10:50:57;;;;;;;8.23;4.77;;;;;;;18.83;86.73;102282.53;5068179;22;20524;-68
2021/09/02 10:53:23;;;;;;;10.07;4.10;;;;;;;19.03;84.68;102283.88;5053510;28;20492;-68
2021/09/02 10:55:51;;;;;;;7.50;4.30;;;;;;;18.97;84.28;102282.41;5053325;28;20457;-68
2021/09/02 10:58:48;;;;;;;9.47;4.60;;;;;;;19.05;85.35;102283.59;5053293;28;20453;-68
2021/09/02 11:01:28;;;;;;;5.27;4.00;;;;;;;19.03;85.30;102283.09;5053202;28;20481;-65
2021/09/02 11:03:56;;;;;;;7.50;5.00;;;;;;;18.97;85.48;102285.16;5053424;28;20537;-65
2021/09/02 11:06:23;;;;;;;7.83;4.97;;;;;;;19.23;84.82;102287.22;5053396;28;20474;-68
2021/09/02 11:08:50;;;;;;;10.03;4.33;;;;;;;19.54;84.57;102290.69;5053519;28;20434;-67
2021/09/02 11:11:18;;;;;;;7.80;4.37;;;;;;;19.78;81.70;102284.78;5069407;28;20489;-66
2021/09/02 11:13:47;;;;;;;5.37;3.90;;;;;;;19.95;82.98;102285.91;5072928;28;20443;-66
2021/09/02 11:16:16;;;;;;;9.57;4.23;;;;;;;20.36;78.78;102286.25;5073574;28;20448;-66
2021/09/02 11:18:45;;;;;;;5.97;4.03;;;;;;;21.15;75.00;102282.13;5072761;28;20445;-66
2021/09/02 11:21:12;;;;;;;11.60;5.27;;;;;;;21.79;72.45;102281.13;5073027;28;20465;-65
2021/09/02 11:23:40;;;;;;;6.63;4.43;;;;;;;21.89;72.31;102274.41;5072949;28;20444;-68